createdAt,value
2023-05-05T05:03:12.662Z,53.65
2023-05-05T05:04:12.511Z,52.40
2023-05-05T05:05:12.620Z,52.20
2023-05-05T05:06:12.641Z,52.03
2023-05-05T05:07:12.639Z,51.96
2023-05-05T05:08:12.623Z,51.93
2023-05-05T05:09:12.736Z,51.89
2023-05-05T05:10:12.750Z,51.86
2023-05-05T05:11:12.737Z,51.78
2023-05-05T05:12:12.804Z,51.80
2023-05-05T05:13:13.159Z,51.76
2023-05-05T05:14:13.911Z,51.75
2023-05-05T05:15:12.910Z,51.76
2023-05-05T05:16:12.993Z,51.74
2023-05-05T05:17:14.083Z,51.72
2023-05-05T05:18:13.039Z,51.70
2023-05-05T05:19:14.125Z,51.68
2023-05-05T05:20:13.152Z,51.67
2023-05-05T05:21:13.211Z,51.68
2023-05-05T05:22:13.284Z,51.69
2023-05-05T05:23:14.347Z,51.65
2023-05-05T05:24:14.454Z,51.71
2023-05-05T05:25:13.460Z,51.66
2023-05-05T05:26:13.512Z,51.71
2023-05-05T05:27:13.492Z,51.66
2023-05-05T05:28:13.548Z,51.67
2023-05-05T05:29:13.595Z,51.66
2023-05-05T05:30:13.613Z,51.67
2023-05-05T05:31:14.773Z,51.60
2023-05-05T05:32:13.783Z,51.61
2023-05-05T05:33:13.726Z,51.61
2023-05-05T05:34:14.849Z,51.61
2023-05-05T05:35:13.826Z,51.57
2023-05-05T05:36:13.899Z,51.54
2023-05-05T05:37:14.849Z,51.53
2023-05-05T05:38:14.897Z,51.55
2023-05-05T05:39:14.953Z,51.55
2023-05-05T05:40:14.907Z,51.53
2023-05-05T05:41:14.988Z,51.52
2023-05-05T05:42:14.940Z,51.55
2023-05-05T05:43:13.985Z,51.51
2023-05-05T05:44:13.940Z,51.56
2023-05-05T05:45:14.996Z,51.53
2023-05-05T05:46:14.028Z,51.54
2023-05-05T05:47:14.024Z,51.50
2023-05-05T05:48:15.063Z,51.51
2023-05-05T05:49:15.099Z,51.52
2023-05-05T05:50:15.180Z,51.52
2023-05-05T05:51:14.246Z,51.53
2023-05-05T05:52:14.259Z,51.53
2023-05-05T05:53:14.285Z,51.51
2023-05-05T05:54:15.333Z,51.52
2023-05-05T05:55:14.298Z,51.51
2023-05-05T05:56:15.333Z,51.51
2023-05-05T05:57:14.432Z,51.50
2023-05-05T05:58:14.412Z,51.54
2023-05-05T05:59:14.443Z,51.51
2023-05-05T06:00:15.538Z,51.54
2023-05-05T06:01:14.609Z,51.54
2023-05-05T06:02:14.756Z,51.52
2023-05-05T06:03:14.993Z,51.52
2023-05-05T06:04:14.723Z,51.52
2023-05-05T06:05:14.709Z,51.52
2023-05-05T06:06:15.796Z,51.52
2023-05-05T06:07:14.833Z,51.52
2023-05-05T06:08:15.908Z,51.51
2023-05-05T06:09:14.899Z,51.53
2023-05-05T06:10:26.666Z,51.53
2023-05-05T06:11:15.941Z,51.52
2023-05-05T06:12:15.959Z,51.47
2023-05-05T06:13:15.061Z,51.46
2023-05-05T06:14:14.970Z,51.40
2023-05-05T06:15:14.927Z,51.36
2023-05-05T06:16:15.057Z,51.27
2023-05-05T06:17:15.131Z,51.43
2023-05-05T06:18:15.128Z,51.57
2023-05-05T06:19:15.038Z,51.69
2023-05-05T06:20:15.887Z,51.74
2023-05-05T06:21:15.861Z,51.65
2023-05-05T06:22:15.091Z,51.78
2023-05-05T06:23:15.929Z,51.78
2023-05-05T06:24:15.978Z,51.86
2023-05-05T06:25:14.993Z,51.94
2023-05-05T06:26:15.112Z,51.90
2023-05-05T06:27:16.066Z,51.86
2023-05-05T06:28:15.015Z,51.89
2023-05-05T06:29:15.042Z,51.96
2023-05-05T06:30:15.020Z,52.11
2023-05-05T06:31:15.081Z,52.11
2023-05-05T06:32:15.046Z,52.11
2023-05-05T06:33:16.073Z,52.14
2023-05-05T06:34:16.090Z,52.15
2023-05-05T06:35:15.037Z,52.25
2023-05-05T06:36:16.053Z,52.13
2023-05-05T06:37:15.084Z,52.08
2023-05-05T06:38:15.056Z,52.12
2023-05-05T06:39:16.087Z,52.18
2023-05-05T06:40:15.172Z,52.17
2023-05-05T06:41:16.216Z,52.23
2023-05-05T06:42:15.254Z,52.39
2023-05-05T06:43:16.294Z,52.39
2023-05-05T06:44:16.361Z,52.37
2023-05-05T06:45:16.464Z,52.39
2023-05-05T06:46:15.543Z,52.48
2023-05-05T06:47:16.575Z,52.51
2023-05-05T06:48:15.660Z,52.59
2023-05-05T06:49:15.659Z,52.58
2023-05-05T06:50:15.683Z,52.42
2023-05-05T06:51:16.725Z,52.38
2023-05-05T06:52:17.266Z,52.53
2023-05-05T06:53:15.810Z,52.23
2023-05-05T06:54:15.871Z,52.08
2023-05-05T06:55:16.089Z,52.60
2023-05-05T06:56:16.000Z,52.53
2023-05-05T06:57:16.181Z,52.61
2023-05-05T06:58:16.030Z,52.61
2023-05-05T06:59:17.115Z,52.69
2023-05-05T07:00:16.053Z,52.68
2023-05-05T07:01:17.213Z,52.71
2023-05-05T07:02:16.151Z,52.75
2023-05-05T07:03:16.346Z,52.70
2023-05-05T07:04:16.328Z,52.74
2023-05-05T07:05:16.223Z,52.85
2023-05-05T07:06:17.241Z,52.89
2023-05-05T07:07:17.316Z,52.97
2023-05-05T07:08:16.335Z,52.97
2023-05-05T07:09:17.205Z,53.01
2023-05-05T07:10:16.368Z,53.06
2023-05-05T07:11:16.506Z,53.06
2023-05-05T07:12:16.396Z,53.04
2023-05-05T07:13:16.606Z,53.22
2023-05-05T07:14:16.486Z,53.33
2023-05-05T07:15:27.470Z,53.27
2023-05-05T07:16:17.478Z,53.02
2023-05-05T07:17:17.447Z,51.71
2023-05-05T07:18:16.424Z,51.46
2023-05-05T07:19:17.417Z,51.82
2023-05-05T07:20:17.397Z,51.50
2023-05-05T07:21:17.414Z,51.83
2023-05-05T07:22:17.396Z,51.84
2023-05-05T07:23:17.414Z,52.06
2023-05-05T07:24:16.359Z,52.13
2023-05-05T07:25:16.586Z,52.21
2023-05-05T07:26:16.451Z,52.04
2023-05-05T07:27:16.711Z,52.28
2023-05-05T07:28:17.370Z,52.20
2023-05-05T07:29:16.376Z,52.34
2023-05-05T07:30:18.327Z,52.31
2023-05-05T07:31:17.531Z,52.27
2023-05-05T07:32:16.670Z,52.29
2023-05-05T07:33:17.589Z,52.32
2023-05-05T07:34:16.599Z,52.31
2023-05-05T07:35:16.555Z,52.31
2023-05-05T07:36:16.777Z,52.22
2023-05-05T07:37:16.661Z,52.38
2023-05-05T07:38:16.722Z,52.49
2023-05-05T07:39:16.783Z,52.52
2023-05-05T07:40:16.688Z,52.54
2023-05-05T07:41:16.643Z,52.61
2023-05-05T07:42:16.808Z,52.61
2023-05-05T07:43:16.982Z,52.71
2023-05-05T07:44:16.715Z,52.78
2023-05-05T07:45:16.756Z,52.78
2023-05-05T07:46:16.923Z,52.84
2023-05-05T07:47:16.799Z,52.79
2023-05-05T07:48:17.371Z,52.93
2023-05-05T07:49:17.791Z,53.04
2023-05-05T07:50:17.010Z,53.11
2023-05-05T07:51:16.713Z,53.18
2023-05-05T07:52:16.776Z,53.29
2023-05-05T07:53:17.751Z,53.36
2023-05-05T07:54:16.780Z,53.30
2023-05-05T07:55:17.748Z,53.30
2023-05-05T07:56:18.396Z,53.44
2023-05-05T07:57:17.750Z,53.42
2023-05-05T07:58:17.859Z,53.49
2023-05-05T07:59:16.878Z,53.42
2023-05-05T08:00:16.827Z,53.44
2023-05-05T08:01:17.810Z,53.52
2023-05-05T08:02:17.891Z,53.51
2023-05-05T08:03:16.830Z,53.50
2023-05-05T08:04:16.903Z,53.41
2023-05-05T08:05:17.018Z,53.52
2023-05-05T08:06:16.965Z,53.65
2023-05-05T08:07:16.947Z,53.66
2023-05-05T08:08:17.094Z,53.55
2023-05-05T08:09:17.047Z,53.54
2023-05-05T08:10:17.074Z,53.50
2023-05-05T08:11:17.263Z,53.52
2023-05-05T08:12:17.278Z,53.64
2023-05-05T08:13:17.322Z,53.67
2023-05-05T08:14:17.325Z,53.79
2023-05-05T08:15:18.499Z,53.64
2023-05-05T08:16:17.495Z,53.81
2023-05-05T08:17:18.474Z,53.77
2023-05-05T08:18:18.531Z,52.62
2023-05-05T08:19:29.197Z,52.83
2023-05-05T08:20:17.545Z,52.78
2023-05-05T08:21:17.573Z,52.29
2023-05-05T08:22:17.480Z,52.51
2023-05-05T08:23:18.494Z,52.58
2023-05-05T08:24:18.232Z,52.36
2023-05-05T08:25:17.546Z,51.96
2023-05-05T08:26:17.502Z,52.31
2023-05-05T08:27:18.449Z,52.44
2023-05-05T08:28:17.576Z,52.49
2023-05-05T08:29:17.522Z,52.60
2023-05-05T08:30:17.477Z,52.79
2023-05-05T08:31:17.585Z,52.94
2023-05-05T08:32:17.479Z,52.97
2023-05-05T08:33:18.409Z,53.02
2023-05-05T08:34:18.639Z,53.12
2023-05-05T08:35:17.461Z,53.14
2023-05-05T08:36:18.612Z,53.31
2023-05-05T08:37:17.441Z,53.40
2023-05-05T08:38:17.378Z,53.36
2023-05-05T08:39:18.424Z,53.37
2023-05-05T08:40:17.369Z,53.38
2023-05-05T08:41:17.399Z,53.51
2023-05-05T08:42:32.746Z,53.61
2023-05-05T08:43:18.881Z,53.62
2023-05-05T08:44:17.322Z,53.69
2023-05-05T08:45:18.362Z,53.91
2023-05-05T08:46:17.348Z,53.67
2023-05-05T08:47:18.434Z,53.77
2023-05-05T08:48:18.460Z,53.76
2023-05-05T08:49:17.523Z,53.85
2023-05-05T08:50:18.342Z,52.97
2023-05-05T08:51:18.343Z,53.67
2023-05-05T08:52:17.377Z,53.63
2023-05-05T08:53:18.326Z,53.58
2023-05-05T08:54:18.343Z,53.11
2023-05-05T08:55:17.323Z,52.74
2023-05-05T08:56:18.249Z,52.35
2023-05-05T08:57:18.236Z,52.30
2023-05-05T08:58:17.262Z,52.15
2023-05-05T08:59:18.357Z,52.16
2023-05-05T09:00:18.348Z,52.31
2023-05-05T09:01:17.322Z,52.53
2023-05-05T09:02:17.333Z,52.65
2023-05-05T09:03:18.440Z,52.74
2023-05-05T09:04:17.215Z,52.94
2023-05-05T09:05:17.223Z,53.06
2023-05-05T09:06:17.242Z,53.20
2023-05-05T09:07:18.315Z,53.19
2023-05-05T09:08:17.304Z,53.33
2023-05-05T09:09:17.392Z,53.40
2023-05-05T09:10:18.404Z,53.54
2023-05-05T09:11:17.456Z,53.50
2023-05-05T09:12:17.454Z,53.58
2023-05-05T09:13:18.550Z,53.57
2023-05-05T09:14:17.529Z,53.72
2023-05-05T09:15:17.553Z,53.84
2023-05-05T09:16:17.664Z,53.94
2023-05-05T09:17:17.676Z,53.88
2023-05-05T09:18:17.769Z,53.93
2023-05-05T09:19:18.806Z,54.04
2023-05-05T09:20:17.819Z,54.14
2023-05-05T09:21:17.870Z,54.03
2023-05-05T09:22:17.833Z,53.97
2023-05-05T09:23:17.960Z,54.12
2023-05-05T09:24:18.019Z,54.18
2023-05-05T09:25:19.017Z,54.17
2023-05-05T09:26:19.013Z,54.34
2023-05-05T09:27:18.125Z,54.42
2023-05-05T09:28:19.147Z,54.38
2023-05-05T09:29:19.266Z,54.37
2023-05-05T09:30:19.294Z,54.36
2023-05-05T09:31:19.424Z,54.32
2023-05-05T09:32:18.552Z,54.31
2023-05-05T09:33:18.688Z,54.32
2023-05-05T09:34:19.513Z,54.38
2023-05-05T09:35:19.698Z,54.38
2023-05-05T09:36:18.672Z,54.32
2023-05-05T09:37:18.621Z,54.51
2023-05-05T09:38:18.691Z,54.64
2023-05-05T09:39:18.736Z,54.69
2023-05-05T09:40:18.677Z,54.79
2023-05-05T09:41:18.721Z,54.89
2023-05-05T09:42:18.752Z,54.96
2023-05-05T09:43:18.827Z,54.86
2023-05-05T09:44:18.798Z,54.96
2023-05-05T09:45:19.902Z,55.09
2023-05-05T09:46:18.963Z,55.19
2023-05-05T09:47:28.926Z,55.43
2023-05-05T09:48:20.194Z,55.30
2023-05-05T09:49:19.535Z,55.27
2023-05-05T09:50:19.246Z,55.30
2023-05-05T09:51:20.125Z,55.37
2023-05-05T09:52:19.023Z,55.35
2023-05-05T09:53:18.940Z,55.42
2023-05-05T09:54:19.270Z,55.43
2023-05-05T09:55:18.909Z,55.47
2023-05-05T09:56:18.838Z,55.43
2023-05-05T09:57:19.855Z,55.35
2023-05-05T09:58:20.086Z,55.26
2023-05-05T09:59:19.991Z,55.23
2023-05-05T10:00:19.129Z,55.34
2023-05-05T10:01:19.278Z,55.35
2023-05-05T10:02:19.316Z,55.39
2023-05-05T10:03:19.367Z,55.45
2023-05-05T10:04:20.208Z,55.41
2023-05-05T10:05:20.269Z,55.35
2023-05-05T10:06:20.362Z,55.37
2023-05-05T10:07:19.544Z,55.51
2023-05-05T10:08:19.451Z,55.68
2023-05-05T10:09:19.430Z,55.76
2023-05-05T10:10:20.466Z,55.69
2023-05-05T10:11:20.497Z,55.63
2023-05-05T10:12:19.611Z,55.66
2023-05-05T10:13:19.742Z,55.69
2023-05-05T10:14:19.734Z,55.69
2023-05-05T10:15:19.750Z,55.82
2023-05-05T10:16:19.969Z,55.85
2023-05-05T10:17:19.860Z,55.83
2023-05-05T10:18:19.976Z,55.89
2023-05-05T10:19:19.958Z,55.81
2023-05-05T10:20:20.131Z,55.70
2023-05-05T10:21:20.128Z,55.95
2023-05-05T10:22:21.279Z,55.94
2023-05-05T10:23:21.174Z,55.88
2023-05-05T10:24:20.218Z,55.78
2023-05-05T10:25:20.216Z,55.78
2023-05-05T10:26:21.345Z,55.99
2023-05-05T10:27:21.311Z,55.97
2023-05-05T10:28:21.497Z,55.95
2023-05-05T10:29:21.612Z,56.10
2023-05-05T10:30:20.555Z,56.17
2023-05-05T10:31:26.343Z,56.16
2023-05-05T10:32:50.237Z,56.21
2023-05-05T10:34:20.853Z,56.21
2023-05-05T10:35:21.778Z,56.28
2023-05-05T10:36:20.750Z,56.18
2023-05-05T10:37:20.749Z,56.20
2023-05-05T10:38:23.601Z,56.27
2023-05-05T10:39:20.791Z,56.29
2023-05-05T10:40:20.719Z,56.35
2023-05-05T10:41:20.785Z,56.34
2023-05-05T10:42:20.683Z,56.41
2023-05-05T10:43:20.754Z,56.36
2023-05-05T10:44:20.790Z,56.38
2023-05-05T10:45:21.714Z,56.49
2023-05-05T10:46:20.792Z,56.49
2023-05-05T10:47:20.727Z,56.44
2023-05-05T10:48:20.694Z,56.55
2023-05-05T10:49:20.641Z,56.58
2023-05-05T10:50:20.628Z,56.53
2023-05-05T10:51:35.171Z,56.58
2023-05-05T10:52:21.701Z,56.62
2023-05-05T10:53:20.695Z,56.62
2023-05-05T10:54:20.763Z,56.68
2023-05-05T10:55:20.664Z,56.63
2023-05-05T10:56:20.587Z,56.67
2023-05-05T10:57:20.581Z,56.66
2023-05-05T10:58:21.578Z,56.65
2023-05-05T10:59:20.573Z,56.78
2023-05-05T11:00:21.575Z,56.72
2023-05-05T11:01:21.580Z,56.74
2023-05-05T11:02:20.590Z,56.78
2023-05-05T11:03:20.662Z,56.78
2023-05-05T11:04:21.621Z,56.78
2023-05-05T11:05:20.589Z,56.85
2023-05-05T11:06:20.558Z,56.92
2023-05-05T11:07:20.570Z,56.90
2023-05-05T11:08:21.549Z,56.89
2023-05-05T11:09:20.582Z,56.91
2023-05-05T11:10:21.666Z,56.87
2023-05-05T11:11:21.500Z,56.76
2023-05-05T11:12:20.497Z,56.89
2023-05-05T11:13:21.680Z,56.91
2023-05-05T11:14:20.513Z,56.90
2023-05-05T11:15:20.529Z,56.93
2023-05-05T11:16:20.458Z,56.89
2023-05-05T11:17:20.425Z,56.91
2023-05-05T11:18:20.489Z,56.89
2023-05-05T11:19:20.415Z,56.93
2023-05-05T11:20:20.469Z,56.83
2023-05-05T11:21:21.489Z,56.80
2023-05-05T11:22:20.465Z,56.81
2023-05-05T11:23:20.448Z,56.79
2023-05-05T11:24:20.451Z,56.82
2023-05-05T11:25:21.448Z,56.85
2023-05-05T11:26:20.697Z,56.82
2023-05-05T11:27:21.398Z,56.88
2023-05-05T11:28:20.399Z,56.91
2023-05-05T11:29:20.382Z,56.91
2023-05-05T11:30:20.459Z,56.90
2023-05-05T11:31:20.402Z,56.88
2023-05-05T11:32:21.342Z,56.91
2023-05-05T11:33:21.333Z,56.86
2023-05-05T11:34:20.392Z,56.88
2023-05-05T11:35:20.412Z,56.85
2023-05-05T11:36:20.433Z,56.84
2023-05-05T11:37:21.501Z,56.79
2023-05-05T11:38:20.649Z,56.77
2023-05-05T11:39:20.730Z,56.78
2023-05-05T11:40:20.724Z,56.77
2023-05-05T11:41:21.773Z,56.84
2023-05-05T11:42:22.097Z,56.82
2023-05-05T11:43:20.815Z,56.82
2023-05-05T11:44:21.033Z,56.80
2023-05-05T11:45:22.090Z,56.75
2023-05-05T11:46:21.026Z,56.68
2023-05-05T11:47:21.032Z,56.74
2023-05-05T11:48:21.127Z,56.75
2023-05-05T11:49:21.203Z,56.67
2023-05-05T11:50:21.293Z,56.66
2023-05-05T11:51:21.322Z,56.50
2023-05-05T11:52:22.318Z,56.54
2023-05-05T11:53:21.396Z,56.47
2023-05-05T11:54:21.531Z,56.46
2023-05-05T11:55:21.598Z,56.47
2023-05-05T11:56:21.527Z,56.37
2023-05-05T11:57:21.568Z,56.47
2023-05-05T11:58:21.714Z,56.48
2023-05-05T11:59:21.626Z,56.52
2023-05-05T12:00:21.722Z,56.48
2023-05-05T12:01:21.680Z,56.49
2023-05-05T12:02:21.718Z,56.46
2023-05-05T12:03:22.809Z,56.48
2023-05-05T12:04:21.634Z,56.46
2023-05-05T12:05:21.803Z,56.49
2023-05-05T12:06:21.765Z,56.48
2023-05-05T12:07:21.800Z,56.51
2023-05-05T12:08:21.735Z,56.45
2023-05-05T12:09:21.735Z,56.49
2023-05-05T12:10:22.893Z,56.50
2023-05-05T12:11:21.853Z,56.49
2023-05-05T12:12:22.992Z,56.46
2023-05-05T12:13:23.050Z,56.47
2023-05-05T12:14:22.243Z,56.41
2023-05-05T12:15:23.095Z,56.42
2023-05-05T12:16:22.225Z,56.44
2023-05-05T12:17:22.148Z,56.46
2023-05-05T12:18:23.191Z,56.44
2023-05-05T12:19:22.101Z,56.36
2023-05-05T12:20:23.184Z,55.98
2023-05-05T12:21:22.189Z,55.48
2023-05-05T12:22:23.151Z,55.51
2023-05-05T12:23:23.193Z,55.57
2023-05-05T12:24:22.141Z,55.79
2023-05-05T12:25:22.162Z,55.74
2023-05-05T12:26:23.252Z,55.99
2023-05-05T12:27:22.267Z,56.17
2023-05-05T12:28:22.326Z,56.17
2023-05-05T12:29:22.276Z,56.22
2023-05-05T12:30:23.415Z,56.19
2023-05-05T12:31:22.372Z,56.20
2023-05-05T12:32:23.390Z,56.18
2023-05-05T12:33:23.409Z,56.23
2023-05-05T12:34:23.368Z,56.21
2023-05-05T12:35:22.498Z,56.22
2023-05-05T12:36:22.496Z,56.22
2023-05-05T12:37:22.478Z,56.20
2023-05-05T12:38:23.438Z,56.22
2023-05-05T12:39:22.461Z,56.17
2023-05-05T12:40:22.549Z,56.21
2023-05-05T12:41:22.450Z,56.19
2023-05-05T12:42:22.550Z,56.17
2023-05-05T12:43:22.500Z,56.18
2023-05-05T12:44:22.514Z,56.20
2023-05-05T12:45:22.562Z,56.18
2023-05-05T12:46:23.536Z,56.16
2023-05-05T12:47:23.472Z,56.16
2023-05-05T12:48:22.487Z,56.17
2023-05-05T12:49:22.445Z,56.16
2023-05-05T12:50:23.508Z,56.13
2023-05-05T12:51:23.680Z,56.14
2023-05-05T12:52:22.535Z,56.14
2023-05-05T12:53:23.518Z,56.15
2023-05-05T12:54:23.538Z,56.13
2023-05-05T12:55:22.621Z,56.07
2023-05-05T12:56:22.635Z,56.09
2023-05-05T12:57:22.623Z,56.09
2023-05-05T12:58:22.600Z,56.13
2023-05-05T12:59:22.688Z,56.10
2023-05-05T13:00:22.881Z,56.06
2023-05-05T13:01:22.786Z,56.08
2023-05-05T13:02:22.860Z,56.06
2023-05-05T13:03:22.824Z,56.07
2023-05-05T13:04:22.850Z,56.09
2023-05-05T13:05:23.856Z,56.06
2023-05-05T13:06:22.811Z,56.07
2023-05-05T13:07:22.813Z,56.08
2023-05-05T13:08:23.835Z,56.03
2023-05-05T13:09:23.856Z,56.00
2023-05-05T13:10:22.967Z,56.04
2023-05-05T13:11:22.902Z,55.98
2023-05-05T13:12:24.962Z,55.90
2023-05-05T13:13:23.028Z,55.93
2023-05-05T13:14:23.045Z,56.00
2023-05-05T13:15:23.119Z,55.99
2023-05-05T13:16:24.058Z,55.97
2023-05-05T13:17:24.092Z,55.96
2023-05-05T13:18:24.206Z,55.97
2023-05-05T13:19:23.088Z,55.95
2023-05-05T13:20:23.140Z,55.92
2023-05-05T13:21:23.182Z,55.93
2023-05-05T13:22:23.173Z,55.94
2023-05-05T13:23:25.737Z,55.90
2023-05-05T13:24:34.400Z,55.90
2023-05-05T13:25:24.264Z,55.95
2023-05-05T13:26:23.193Z,55.90
2023-05-05T13:27:24.184Z,55.91
2023-05-05T13:28:23.131Z,55.89
2023-05-05T13:29:26.113Z,55.89
2023-05-05T13:30:24.182Z,55.85
2023-05-05T13:31:24.161Z,55.86
2023-05-05T13:32:24.195Z,55.87
2023-05-05T13:33:23.058Z,55.85
2023-05-05T13:34:23.061Z,55.81
2023-05-05T13:35:23.103Z,55.81
2023-05-05T13:36:23.035Z,55.79
2023-05-05T13:37:23.090Z,55.82
2023-05-05T13:38:23.070Z,55.78
2023-05-05T13:39:24.027Z,55.79
2023-05-05T13:40:25.757Z,55.81
2023-05-05T13:41:24.134Z,55.82
2023-05-05T13:42:23.073Z,55.78
2023-05-05T13:43:23.002Z,55.74
2023-05-05T13:44:24.051Z,55.79
2023-05-05T13:45:23.023Z,55.80
2023-05-05T13:46:23.120Z,55.78
2023-05-05T13:47:23.160Z,55.76
2023-05-05T13:48:24.064Z,55.72
2023-05-05T13:49:23.038Z,55.70
2023-05-05T13:50:24.094Z,55.71
2023-05-05T13:51:23.027Z,55.75
2023-05-05T13:52:23.005Z,55.73
2023-05-05T13:53:23.012Z,55.69
2023-05-05T13:54:22.917Z,55.69
2023-05-05T13:55:23.965Z,55.67
2023-05-05T13:56:23.895Z,55.68
2023-05-05T13:57:22.887Z,55.64
2023-05-05T13:58:23.978Z,55.64
2023-05-05T13:59:22.931Z,55.62
2023-05-05T14:00:22.882Z,55.62
2023-05-05T14:01:23.019Z,55.64
2023-05-05T14:02:23.882Z,55.63
2023-05-05T14:03:22.866Z,55.62
2023-05-05T14:04:22.979Z,55.59
2023-05-05T14:05:22.918Z,55.58
2023-05-05T14:06:22.919Z,55.56
2023-05-05T14:07:22.839Z,55.55
2023-05-05T14:08:23.805Z,55.50
2023-05-05T14:09:22.844Z,55.47
2023-05-05T14:10:22.781Z,55.47
2023-05-05T14:11:22.860Z,55.48
2023-05-05T14:12:23.827Z,55.42
2023-05-05T14:13:22.790Z,55.37
2023-05-05T14:14:22.866Z,55.33
2023-05-05T14:15:22.844Z,55.34
2023-05-05T14:16:22.920Z,55.31
2023-05-05T14:17:22.743Z,55.32
2023-05-05T14:18:23.742Z,55.25
2023-05-05T14:19:23.844Z,55.27
2023-05-05T14:20:22.741Z,55.27
2023-05-05T14:21:22.839Z,55.23
2023-05-05T14:22:22.888Z,55.20
2023-05-05T14:23:23.767Z,55.19
2023-05-05T14:24:22.707Z,55.17
2023-05-05T14:25:23.759Z,55.15
2023-05-05T14:26:22.795Z,54.85
2023-05-05T14:27:22.727Z,54.91
2023-05-05T14:28:22.767Z,54.93
2023-05-05T14:29:22.694Z,54.90
2023-05-05T14:30:22.753Z,55.02
2023-05-05T14:31:22.689Z,55.05
2023-05-05T14:32:22.740Z,55.06
2023-05-05T14:33:22.786Z,55.03
2023-05-05T14:34:23.692Z,55.00
2023-05-05T14:35:23.796Z,54.99
2023-05-05T14:36:22.819Z,54.97
2023-05-05T14:37:22.841Z,55.02
2023-05-05T14:38:22.860Z,54.98
2023-05-05T14:39:22.818Z,54.96
2023-05-05T14:40:22.873Z,54.94
2023-05-05T14:41:22.907Z,54.91
2023-05-05T14:42:22.843Z,54.89
2023-05-05T14:43:22.864Z,54.90
2023-05-05T14:44:23.927Z,54.86
2023-05-05T14:45:22.943Z,54.82
2023-05-05T14:46:23.089Z,54.77
2023-05-05T14:47:23.992Z,54.81
2023-05-05T14:48:22.914Z,54.75
2023-05-05T14:49:23.939Z,54.75
2023-05-05T14:50:24.015Z,54.74
2023-05-05T14:51:23.003Z,54.70
2023-05-05T14:52:22.945Z,54.66
2023-05-05T14:53:23.019Z,54.64
2023-05-05T14:54:28.502Z,54.66
2023-05-05T14:55:24.052Z,54.66
2023-05-05T14:56:22.972Z,54.61
2023-05-05T14:57:24.044Z,54.61
2023-05-05T14:58:22.974Z,54.59
2023-05-05T14:59:24.026Z,54.55
2023-05-05T15:00:22.964Z,54.53
2023-05-05T15:01:22.941Z,54.48
2023-05-05T15:02:24.065Z,54.49
2023-05-05T15:03:22.994Z,54.47
2023-05-05T15:04:22.955Z,54.43
2023-05-05T15:05:23.937Z,54.47
2023-05-05T15:06:22.972Z,54.42
2023-05-05T15:07:23.889Z,54.43
2023-05-05T15:08:22.963Z,54.38
2023-05-05T15:09:23.917Z,54.38
2023-05-05T15:10:23.023Z,54.36
2023-05-05T15:11:22.980Z,54.32
2023-05-05T15:12:23.942Z,54.39
2023-05-05T15:13:22.966Z,54.37
2023-05-05T15:14:22.836Z,54.40
2023-05-05T15:15:23.895Z,54.34
2023-05-05T15:16:22.855Z,54.35
2023-05-05T15:17:23.932Z,54.47
2023-05-05T15:18:23.872Z,54.37
2023-05-05T15:19:22.852Z,54.33
2023-05-05T15:20:23.791Z,54.26
2023-05-05T15:21:23.900Z,54.28
2023-05-05T15:22:22.868Z,54.36
2023-05-05T15:23:22.853Z,54.36
2023-05-05T15:24:23.820Z,54.40
2023-05-05T15:25:22.764Z,54.39
2023-05-05T15:26:22.780Z,54.35
2023-05-05T15:27:22.751Z,54.35
2023-05-05T15:28:22.743Z,54.30
2023-05-05T15:29:22.736Z,54.34
